Santa Cruz de Tenerife, Spain
Current Conditions -  °F | °C
As of 11:00 PM on Wednesday 28 Jan 2015 (Local Time) from GCXO Reporting Station
Broken Clouds Broken Clouds  
Wind Chill: 52°   Ceiling: 2500
Heat Index: 52°   Visibility: 6mi
Dew Point: 48°   Wind: 6mph
Humidity: 88%   Direction: 330°NNW
Pressure: 30.36"   Gusts: NA
Location:  28.47°N, 16.25°W
Report Text: GCXO 282300Z 33005KT 300V020 9999 FEW020 BKN025 11/09 Q1028 NOSIG
Loading
Personal Weather Stations






























Interactive Weather Map New forecast layout! Learn more

10-Day Weather Forecast

Advertisements
Track Severe Weather on mobile